Impacts METAR Board INFO
IDs:

KORD - Chicago/O'Hare Intl, IL, US

Updated at: 2027 UTC 22 Feb 2018
Potential Impact None Slight Moderate High
Time22/08Z 22/09Z 22/10Z 22/11Z 22/12Z 22/13Z 22/14Z 22/15Z 22/16Z 22/17Z 22/18Z 22/19Z 22/20Z
VIS10 10 10 10 10 10 10 10 10 10 10 10 10
CIG190 200 220 160 120 120 110 100 100 80 130 55 43
CoverOVCOVCOVCOVCOVCOVCOVCBKNBKNOVCBKNBKNOVC
FltCatVFRVFRVFRVFRVFRVFRVFRVFRVFRVFRVFRVFRVFR
WX--------------------------
WDir50504040405060507070706050
WSpd8 11 9 9 11 12 11 12 12 12 12 13 14
WGst-- -- -- -- -- -- -- -- -- -- -- -- --
Raw hourly METARs
KORD 220751Z 05008KT 10SM OVC190 M01/M06 A3058 RMK AO2 SLP362 T10061056
KORD 220851Z 05011KT 10SM OVC200 M01/M05 A3054 RMK AO2 SLP349 T10061050 58010
KORD 220951Z 04009KT 10SM FEW023 OVC220 M01/M04 A3053 RMK AO2 SLP348 T10061039
KORD 221051Z 04009KT 10SM FEW023 BKN160 OVC250 00/M04 A3053 RMK AO2 SLP347 T00001039
KORD 221151Z 04011KT 10SM SCT025 BKN120 OVC250 01/M03 A3054 RMK AO2 SLP349 T00061033 10006 21017 55000
KORD 221251Z 05012KT 10SM BKN120 OVC170 01/M03 A3054 RMK AO2 SLP349 T00061028
KORD 221351Z 06011KT 10SM BKN110 OVC180 01/M03 A3055 RMK AO2 SLP352 T00111028
KORD 221451Z 05012KT 10SM FEW020 BKN100 BKN140 02/M02 A3055 RMK AO2 SLP351 T00221022 53003
KORD 221551Z 07012KT 10SM FEW017 BKN100 BKN130 03/M02 A3054 RMK AO2 SLP350 T00281017
KORD 221651Z 07012KT 10SM FEW017 FEW026 BKN080 OVC130 03/M02 A3053 RMK AO2 SLP347 T00331017
KORD 221751Z 07012KT 10SM FEW017 SCT070 BKN130 04/M03 A3051 RMK AO2 SLP338 T00391028 10044 20000 58013
KORD 221851Z 06013KT 10SM FEW020 BKN055 BKN150 04/M02 A3048 RMK AO2 SLP328 T00391017
KORD 221951Z 05014KT 10SM FEW021 BKN043 OVC055 03/M02 A3045 RMK AO2 SLP318 T00331022